sensor_id;sensor_type;location;lat;lon;timestamp;pressure;altitude;pressure_sealevel;temperature;humidity
21960;BME280;11144;43.030;25.108;2023-02-04T00:00:46;99062.25;;;2.56;100.00
21960;BME280;11144;43.030;25.108;2023-02-04T00:02:19;99056.22;;;2.49;100.00
21960;BME280;11144;43.030;25.108;2023-02-04T00:03:52;99048.50;;;2.39;100.00
21960;BME280;11144;43.030;25.108;2023-02-04T00:05:26;99046.72;;;2.41;100.00
21960;BME280;11144;43.030;25.108;2023-02-04T00:06:59;99046.72;;;2.39;100.00
21960;BME280;11144;43.030;25.108;2023-02-04T00:08:33;99037.22;;;2.35;100.00
21960;BME280;11144;43.030;25.108;2023-02-04T00:10:09;99038.13;;;2.31;100.00
21960;BME280;11144;43.030;25.108;2023-02-04T00:11:42;99039.88;;;2.31;100.00
21960;BME280;11144;43.030;25.108;2023-02-04T00:13:16;99038.13;;;2.27;100.00
21960;BME280;11144;43.030;25.108;2023-02-04T00:14:49;99032.97;;;2.24;100.00
21960;BME280;11144;43.030;25.108;2023-02-04T00:16:21;99026.00;;;2.23;100.00
21960;BME280;11144;43.030;25.108;2023-02-04T00:17:55;99027.78;;;2.18;100.00
21960;BME280;11144;43.030;25.108;2023-02-04T00:19:28;99022.63;;;2.12;100.00
21960;BME280;11144;43.030;25.108;2023-02-04T00:21:03;99025.28;;;2.09;100.00
21960;BME280;11144;43.030;25.108;2023-02-04T00:22:36;99015.75;;;2.05;100.00
21960;BME280;11144;43.030;25.108;2023-02-04T00:24:09;99016.63;;;2.01;100.00
21960;BME280;11144;43.030;25.108;2023-02-04T00:25:42;99021.81;;;2.01;100.00
21960;BME280;11144;43.030;25.108;2023-02-04T00:27:15;99007.94;;;2.02;100.00
21960;BME280;11144;43.030;25.108;2023-02-04T00:28:48;99015.75;;;2.02;100.00
21960;BME280;11144;43.030;25.108;2023-02-04T00:30:21;99008.84;;;1.98;100.00
21960;BME280;11144;43.030;25.108;2023-02-04T00:31:53;99000.16;;;1.93;100.00
21960;BME280;11144;43.030;25.108;2023-02-04T00:33:27;98997.56;;;1.93;100.00
21960;BME280;11144;43.030;25.108;2023-02-04T00:35:00;98996.66;;;1.97;100.00
21960;BME280;11144;43.030;25.108;2023-02-04T00:36:36;98988.81;;;2.03;100.00
21960;BME280;11144;43.030;25.108;2023-02-04T00:38:10;98988.81;;;2.04;100.00
21960;BME280;11144;43.030;25.108;2023-02-04T00:39:44;98992.31;;;2.02;100.00
21960;BME280;11144;43.030;25.108;2023-02-04T00:41:17;98994.94;;;1.99;100.00
21960;BME280;11144;43.030;25.108;2023-02-04T00:42:51;98991.50;;;1.91;100.00
21960;BME280;11144;43.030;25.108;2023-02-04T00:44:24;98981.94;;;1.90;100.00
21960;BME280;11144;43.030;25.108;2023-02-04T00:45:56;98982.81;;;1.89;100.00
21960;BME280;11144;43.030;25.108;2023-02-04T00:47:30;98979.38;;;1.87;100.00
21960;BME280;11144;43.030;25.108;2023-02-04T00:49:03;98970.69;;;1.88;100.00
21960;BME280;11144;43.030;25.108;2023-02-04T00:50:41;98974.16;;;1.87;100.00
21960;BME280;11144;43.030;25.108;2023-02-04T00:52:16;98978.50;;;1.86;100.00
21960;BME280;11144;43.030;25.108;2023-02-04T00:53:51;98975.91;;;1.85;100.00
21960;BME280;11144;43.030;25.108;2023-02-04T00:55:24;98966.31;;;1.90;100.00
21960;BME280;11144;43.030;25.108;2023-02-04T00:56:57;98968.91;;;1.93;100.00
21960;BME280;11144;43.030;25.108;2023-02-04T00:58:31;98957.63;;;1.94;100.00
21960;BME280;11144;43.030;25.108;2023-02-04T01:00:06;98956.72;;;1.98;100.00
21960;BME280;11144;43.030;25.108;2023-02-04T01:01:39;98951.44;;;2.01;100.00
21960;BME280;11144;43.030;25.108;2023-02-04T01:03:13;98945.38;;;2.03;100.00
21960;BME280;11144;43.030;25.108;2023-02-04T01:04:46;98944.47;;;2.06;100.00
21960;BME280;11144;43.030;25.108;2023-02-04T01:06:21;98944.47;;;2.09;100.00
21960;BME280;11144;43.030;25.108;2023-02-04T01:07:55;98942.66;;;2.14;100.00
21960;BME280;11144;43.030;25.108;2023-02-04T01:09:29;98937.44;;;2.17;100.00
21960;BME280;11144;43.030;25.108;2023-02-04T01:11:03;98927.00;;;2.17;100.00
21960;BME280;11144;43.030;25.108;2023-02-04T01:12:36;98922.69;;;2.16;100.00
21960;BME280;11144;43.030;25.108;2023-02-04T01:14:09;98920.00;;;2.19;100.00
21960;BME280;11144;43.030;25.108;2023-02-04T01:15:43;98919.97;;;2.25;100.00
21960;BME280;11144;43.030;25.108;2023-02-04T01:17:15;98914.72;;;2.31;100.00
21960;BME280;11144;43.030;25.108;2023-02-04T01:18:50;98907.75;;;2.30;100.00
21960;BME280;11144;43.030;25.108;2023-02-04T01:20:28;98902.50;;;2.33;100.00
21960;BME280;11144;43.030;25.108;2023-02-04T01:22:02;98899.00;;;2.34;100.00
21960;BME280;11144;43.030;25.108;2023-02-04T01:23:35;98887.72;;;2.33;100.00
21960;BME280;11144;43.030;25.108;2023-02-04T01:25:10;98892.09;;;2.31;100.00
21960;BME280;11144;43.030;25.108;2023-02-04T01:26:46;98885.09;;;2.35;100.00
21960;BME280;11144;43.030;25.108;2023-02-04T01:28:20;98871.19;;;2.36;100.00
21960;BME280;11144;43.030;25.108;2023-02-04T01:29:53;98866.75;;;2.42;100.00
21960;BME280;11144;43.030;25.108;2023-02-04T01:31:26;98862.44;;;2.40;100.00
21960;BME280;11144;43.030;25.108;2023-02-04T01:33:02;98851.13;;;2.41;100.00
21960;BME280;11144;43.030;25.108;2023-02-04T01:34:35;98852.88;;;2.42;100.00
21960;BME280;11144;43.030;25.108;2023-02-04T01:36:08;98838.94;;;2.41;100.00
21960;BME280;11144;43.030;25.108;2023-02-04T01:37:41;98845.03;;;2.42;100.00
21960;BME280;11144;43.030;25.108;2023-02-04T01:39:15;98838.03;;;2.44;100.00
21960;BME280;11144;43.030;25.108;2023-02-04T01:40:50;98836.31;;;2.46;100.00
21960;BME280;11144;43.030;25.108;2023-02-04T01:42:25;98836.22;;;2.49;100.00
21960;BME280;11144;43.030;25.108;2023-02-04T01:43:59;98833.56;;;2.55;100.00
21960;BME280;11144;43.030;25.108;2023-02-04T01:45:32;98835.25;;;2.59;100.00
21960;BME280;11144;43.030;25.108;2023-02-04T01:47:06;98835.25;;;2.59;100.00
21960;BME280;11144;43.030;25.108;2023-02-04T01:48:40;98824.78;;;2.62;100.00
21960;BME280;11144;43.030;25.108;2023-02-04T01:50:14;98823.84;;;2.66;100.00
21960;BME280;11144;43.030;25.108;2023-02-04T01:51:49;98822.09;;;2.68;100.00
21960;BME280;11144;43.030;25.108;2023-02-04T01:53:24;98809.88;;;2.70;100.00
21960;BME280;11144;43.030;25.108;2023-02-04T01:54:59;98804.66;;;2.70;100.00
21960;BME280;11144;43.030;25.108;2023-02-04T01:56:33;98811.59;;;2.72;100.00
21960;BME280;11144;43.030;25.108;2023-02-04T01:58:09;98811.53;;;2.78;100.00
21960;BME280;11144;43.030;25.108;2023-02-04T01:59:42;98800.19;;;2.79;100.00
21960;BME280;11144;43.030;25.108;2023-02-04T02:01:33;98795.88;;;2.77;100.00
21960;BME280;11144;43.030;25.108;2023-02-04T02:03:08;98793.22;;;2.80;100.00
21960;BME280;11144;43.030;25.108;2023-02-04T02:04:42;98791.44;;;2.83;100.00
21960;BME280;11144;43.030;25.108;2023-02-04T02:06:16;98780.16;;;2.83;100.00
21960;BME280;11144;43.030;25.108;2023-02-04T02:07:53;98783.63;;;2.82;100.00
21960;BME280;11144;43.030;25.108;2023-02-04T02:09:29;98781.91;;;2.81;100.00
21960;BME280;11144;43.030;25.108;2023-02-04T02:11:05;98785.38;;;2.83;100.00
21960;BME280;11144;43.030;25.108;2023-02-04T02:12:39;98778.34;;;2.86;100.00
21960;BME280;11144;43.030;25.108;2023-02-04T02:14:12;98778.28;;;2.91;100.00
21960;BME280;11144;43.030;25.108;2023-02-04T02:15:46;98775.63;;;2.95;100.00
21960;BME280;11144;43.030;25.108;2023-02-04T02:17:20;98769.47;;;2.98;100.00
21960;BME280;11144;43.030;25.108;2023-02-04T02:18:52;98774.66;;;3.01;100.00
21960;BME280;11144;43.030;25.108;2023-02-04T02:20:26;98775.44;;;3.06;100.00
21960;BME280;11144;43.030;25.108;2023-02-04T02:22:04;98774.50;;;3.10;100.00
21960;BME280;11144;43.030;25.108;2023-02-04T02:23:47;98780.63;;;3.09;100.00
21960;BME280;11144;43.030;25.108;2023-02-04T02:25:22;98789.41;;;3.05;100.00
21960;BME280;11144;43.030;25.108;2023-02-04T02:26:57;98784.16;;;3.06;100.00
21960;BME280;11144;43.030;25.108;2023-02-04T02:28:30;98771.94;;;3.07;100.00
21960;BME280;11144;43.030;25.108;2023-02-04T02:30:04;98758.84;;;3.10;100.00
21960;BME280;11144;43.030;25.108;2023-02-04T02:31:39;98763.19;;;3.09;100.00
21960;BME280;11144;43.030;25.108;2023-02-04T02:33:12;98765.94;;;3.02;100.00
21960;BME280;11144;43.030;25.108;2023-02-04T02:34:48;98757.38;;;2.94;100.00
21960;BME280;11144;43.030;25.108;2023-02-04T02:36:21;98768.72;;;2.91;100.00
21960;BME280;11144;43.030;25.108;2023-02-04T02:37:55;98773.00;;;2.95;100.00
21960;BME280;11144;43.030;25.108;2023-02-04T02:39:30;98769.47;;;2.98;100.00
21960;BME280;11144;43.030;25.108;2023-02-04T02:41:04;98772.09;;;2.98;100.00
21960;BME280;11144;43.030;25.108;2023-02-04T02:42:40;98768.63;;;2.96;100.00
21960;BME280;11144;43.030;25.108;2023-02-04T02:44:15;98766.06;;;2.93;100.00
21960;BME280;11144;43.030;25.108;2023-02-04T02:45:50;98766.94;;;2.92;100.00
21960;BME280;11144;43.030;25.108;2023-02-04T02:47:23;98763.44;;;2.94;100.00
21960;BME280;11144;43.030;25.108;2023-02-04T02:48:57;98762.50;;;2.97;100.00
21960;BME280;11144;43.030;25.108;2023-02-04T02:50:31;98759.03;;;2.99;100.00
21960;BME280;11144;43.030;25.108;2023-02-04T02:52:05;98754.63;;;3.01;100.00
21960;BME280;11144;43.030;25.108;2023-02-04T02:53:41;98752.06;;;2.97;100.00
21960;BME280;11144;43.030;25.108;2023-02-04T02:55:17;98750.34;;;2.96;100.00
21960;BME280;11144;43.030;25.108;2023-02-04T02:56:52;98747.72;;;2.97;100.00
21960;BME280;11144;43.030;25.108;2023-02-04T02:58:28;98752.03;;;3.00;100.00
21960;BME280;11144;43.030;25.108;2023-02-04T03:00:12;98752.00;;;3.03;100.00
21960;BME280;11144;43.030;25.108;2023-02-04T03:01:49;98738.03;;;3.04;100.00
21960;BME280;11144;43.030;25.108;2023-02-04T03:03:27;98731.97;;;3.03;100.00
21960;BME280;11144;43.030;25.108;2023-02-04T03:05:02;98743.25;;;3.04;100.00
21960;BME280;11144;43.030;25.108;2023-02-04T03:06:36;98739.88;;;2.99;100.00
21960;BME280;11144;43.030;25.108;2023-02-04T03:08:08;98736.47;;;2.94;100.00
21960;BME280;11144;43.030;25.108;2023-02-04T03:09:43;98745.25;;;2.90;100.00
21960;BME280;11144;43.030;25.108;2023-02-04T03:11:17;98741.78;;;2.88;100.00
21960;BME280;11144;43.030;25.108;2023-02-04T03:12:51;98737.41;;;2.90;100.00
21960;BME280;11144;43.030;25.108;2023-02-04T03:14:25;98734.88;;;2.84;100.00
21960;BME280;11144;43.030;25.108;2023-02-04T03:15:59;98739.16;;;2.88;100.00
21960;BME280;11144;43.030;25.108;2023-02-04T03:17:32;98745.31;;;2.84;100.00
21960;BME280;11144;43.030;25.108;2023-02-04T03:19:07;98731.38;;;2.85;100.00
21960;BME280;11144;43.030;25.108;2023-02-04T03:20:41;98731.53;;;2.76;100.00
21960;BME280;11144;43.030;25.108;2023-02-04T03:22:14;98733.25;;;2.77;100.00
21960;BME280;11144;43.030;25.108;2023-02-04T03:23:49;98732.34;;;2.79;100.00
21960;BME280;11144;43.030;25.108;2023-02-04T03:25:23;98736.72;;;2.79;100.00
21960;BME280;11144;43.030;25.108;2023-02-04T03:26:59;98729.72;;;2.81;100.00
21960;BME280;11144;43.030;25.108;2023-02-04T03:28:37;98725.38;;;2.80;100.00
21960;BME280;11144;43.030;25.108;2023-02-04T03:30:13;98727.13;;;2.79;100.00
21960;BME280;11144;43.030;25.108;2023-02-04T03:31:46;98721.06;;;2.79;100.00
21960;BME280;11144;43.030;25.108;2023-02-04T03:33:20;98724.50;;;2.81;100.00
21960;BME280;11144;43.030;25.108;2023-02-04T03:34:53;98717.50;;;2.83;100.00
21960;BME280;11144;43.030;25.108;2023-02-04T03:36:26;98719.22;;;2.84;100.00
21960;BME280;11144;43.030;25.108;2023-02-04T03:38:00;98729.66;;;2.85;100.00
21960;BME280;11144;43.030;25.108;2023-02-04T03:39:33;98727.91;;;2.86;100.00
21960;BME280;11144;43.030;25.108;2023-02-04T03:41:07;98734.94;;;2.81;100.00
21960;BME280;11144;43.030;25.108;2023-02-04T03:42:42;98727.94;;;2.83;100.00
21960;BME280;11144;43.030;25.108;2023-02-04T03:44:15;98726.16;;;2.85;100.00
21960;BME280;11144;43.030;25.108;2023-02-04T03:45:49;98723.50;;;2.88;100.00
21960;BME280;11144;43.030;25.108;2023-02-04T03:47:23;98737.47;;;2.87;100.00
21960;BME280;11144;43.030;25.108;2023-02-04T03:48:56;98738.28;;;2.89;100.00
21960;BME280;11144;43.030;25.108;2023-02-04T03:50:29;98736.56;;;2.88;100.00
21960;BME280;11144;43.030;25.108;2023-02-04T03:52:03;98721.75;;;2.90;100.00
21960;BME280;11144;43.030;25.108;2023-02-04T03:53:37;98719.06;;;2.93;100.00
21960;BME280;11144;43.030;25.108;2023-02-04T03:55:10;98713.94;;;2.90;100.00
21960;BME280;11144;43.030;25.108;2023-02-04T03:56:42;98698.25;;;2.90;100.00
21960;BME280;11144;43.030;25.108;2023-02-04T03:58:17;98695.75;;;2.84;100.00
21960;BME280;11144;43.030;25.108;2023-02-04T03:59:50;98696.69;;;2.80;100.00
21960;BME280;11144;43.030;25.108;2023-02-04T04:01:23;98697.59;;;2.77;100.00
21960;BME280;11144;43.030;25.108;2023-02-04T04:02:56;98688.94;;;2.72;100.00
21960;BME280;11144;43.030;25.108;2023-02-04T04:04:29;98695.09;;;2.70;100.00
21960;BME280;11144;43.030;25.108;2023-02-04T04:06:02;98679.53;;;2.64;100.00
21960;BME280;11144;43.030;25.108;2023-02-04T04:07:37;98676.84;;;2.67;100.00
21960;BME280;11144;43.030;25.108;2023-02-04T04:09:10;98685.53;;;2.69;100.00
21960;BME280;11144;43.030;25.108;2023-02-04T04:10:43;98695.09;;;2.70;100.00
21960;BME280;11144;43.030;25.108;2023-02-04T04:12:17;98693.38;;;2.69;100.00
21960;BME280;11144;43.030;25.108;2023-02-04T04:13:51;98686.34;;;2.71;100.00
21960;BME280;11144;43.030;25.108;2023-02-04T04:15:24;98691.66;;;2.68;100.00
21960;BME280;11144;43.030;25.108;2023-02-04T04:16:57;98688.16;;;2.69;100.00
21960;BME280;11144;43.030;25.108;2023-02-04T04:18:30;98685.53;;;2.69;100.00
21960;BME280;11144;43.030;25.108;2023-02-04T04:20:04;98677.72;;;2.69;100.00
21960;BME280;11144;43.030;25.108;2023-02-04T04:21:37;98676.81;;;2.70;100.00
21960;BME280;11144;43.030;25.108;2023-02-04T04:23:10;98675.03;;;2.73;100.00
21960;BME280;11144;43.030;25.108;2023-02-04T04:24:43;98679.38;;;2.73;100.00
21960;BME280;11144;43.030;25.108;2023-02-04T04:26:16;98688.00;;;2.78;100.00
21960;BME280;11144;43.030;25.108;2023-02-04T04:27:49;98687.94;;;2.81;100.00
21960;BME280;11144;43.030;25.108;2023-02-04T04:29:24;98686.22;;;2.81;100.00
21960;BME280;11144;43.030;25.108;2023-02-04T04:30:57;98686.25;;;2.80;100.00
21960;BME280;11144;43.030;25.108;2023-02-04T04:32:31;98686.19;;;2.83;100.00
21960;BME280;11144;43.030;25.108;2023-02-04T04:34:03;98686.19;;;2.83;100.00
21960;BME280;11144;43.030;25.108;2023-02-04T04:35:36;98679.28;;;2.80;100.00
21960;BME280;11144;43.030;25.108;2023-02-04T04:37:09;98674.13;;;2.76;100.00
21960;BME280;11144;43.030;25.108;2023-02-04T04:38:43;98682.00;;;2.71;100.00
21960;BME280;11144;43.030;25.108;2023-02-04T04:40:15;98664.66;;;2.69;100.00
21960;BME280;11144;43.030;25.108;2023-02-04T04:41:48;98678.63;;;2.66;100.00
21960;BME280;11144;43.030;25.108;2023-02-04T04:43:21;98669.03;;;2.67;100.00
21960;BME280;11144;43.030;25.108;2023-02-04T04:44:56;98658.66;;;2.64;100.00
21960;BME280;11144;43.030;25.108;2023-02-04T04:46:28;98647.44;;;2.57;100.00
21960;BME280;11144;43.030;25.108;2023-02-04T04:48:02;98657.13;;;2.51;100.00
21960;BME280;11144;43.030;25.108;2023-02-04T04:49:35;98671.06;;;2.50;100.00
21960;BME280;11144;43.030;25.108;2023-02-04T04:51:07;98674.47;;;2.52;100.00
21960;BME280;11144;43.030;25.108;2023-02-04T04:52:41;98667.59;;;2.48;100.00
21960;BME280;11144;43.030;25.108;2023-02-04T04:54:13;98667.50;;;2.54;100.00
21960;BME280;11144;43.030;25.108;2023-02-04T04:55:46;98670.09;;;2.55;100.00
21960;BME280;11144;43.030;25.108;2023-02-04T04:57:19;98669.22;;;2.55;100.00
21960;BME280;11144;43.030;25.108;2023-02-04T04:58:52;98672.63;;;2.60;100.00
21960;BME280;11144;43.030;25.108;2023-02-04T05:00:26;98669.03;;;2.67;100.00
21960;BME280;11144;43.030;25.108;2023-02-04T05:02:00;98673.38;;;2.69;100.00
21960;BME280;11144;43.030;25.108;2023-02-04T05:03:33;98666.38;;;2.70;100.00
21960;BME280;11144;43.030;25.108;2023-02-04T05:05:05;98672.50;;;2.69;100.00
21960;BME280;11144;43.030;25.108;2023-02-04T05:06:39;98665.47;;;2.71;100.00
21960;BME280;11144;43.030;25.108;2023-02-04T05:08:12;98673.31;;;2.71;100.00
21960;BME280;11144;43.030;25.108;2023-02-04T05:09:47;98668.94;;;2.73;100.00
21960;BME280;11144;43.030;25.108;2023-02-04T05:11:20;98668.94;;;2.73;100.00
21960;BME280;11144;43.030;25.108;2023-02-04T05:12:54;98677.56;;;2.78;100.00
21960;BME280;11144;43.030;25.108;2023-02-04T05:14:27;98680.16;;;2.79;100.00
21960;BME280;11144;43.030;25.108;2023-02-04T05:16:01;98648.16;;;2.67;100.00
21960;BME280;11144;43.030;25.108;2023-02-04T05:17:35;98665.28;;;2.86;100.00
21960;BME280;11144;43.030;25.108;2023-02-04T05:19:08;98669.47;;;2.94;100.00
21960;BME280;11144;43.030;25.108;2023-02-04T05:20:41;98673.72;;;3.00;100.00
21960;BME280;11144;43.030;25.108;2023-02-04T05:22:14;98670.16;;;3.04;100.00
21960;BME280;11144;43.030;25.108;2023-02-04T05:23:47;98668.34;;;3.09;100.00
21960;BME280;11144;43.030;25.108;2023-02-04T05:25:20;98680.53;;;3.08;100.00
21960;BME280;11144;43.030;25.108;2023-02-04T05:26:54;98678.69;;;3.15;100.00
21960;BME280;11144;43.030;25.108;2023-02-04T05:28:27;98684.69;;;3.21;100.00
21960;BME280;11144;43.030;25.108;2023-02-04T05:30:00;98687.19;;;3.26;100.00
21960;BME280;11144;43.030;25.108;2023-02-04T05:31:35;98683.63;;;3.30;100.00
21960;BME280;11144;43.030;25.108;2023-02-04T05:33:08;98685.34;;;3.32;100.00
21960;BME280;11144;43.030;25.108;2023-02-04T05:34:42;98683.59;;;3.33;100.00
21960;BME280;11144;43.030;25.108;2023-02-04T05:36:14;98687.09;;;3.32;100.00
21960;BME280;11144;43.030;25.108;2023-02-04T05:37:48;98691.44;;;3.33;100.00
21960;BME280;11144;43.030;25.108;2023-02-04T05:39:22;98692.28;;;3.33;100.00
21960;BME280;11144;43.030;25.108;2023-02-04T05:40:55;98688.81;;;3.33;100.00
21960;BME280;11144;43.030;25.108;2023-02-04T05:42:27;98695.72;;;3.35;100.00
21960;BME280;11144;43.030;25.108;2023-02-04T05:44:01;98701.81;;;3.37;100.00
21960;BME280;11144;43.030;25.108;2023-02-04T05:45:34;98699.97;;;3.41;100.00
21960;BME280;11144;43.030;25.108;2023-02-04T05:47:08;98693.88;;;3.42;100.00
21960;BME280;11144;43.030;25.108;2023-02-04T05:48:42;98693.88;;;3.42;100.00
21960;BME280;11144;43.030;25.108;2023-02-04T05:50:15;98693.88;;;3.42;100.00
21960;BME280;11144;43.030;25.108;2023-02-04T05:51:48;98696.59;;;3.36;100.00
21960;BME280;11144;43.030;25.108;2023-02-04T05:53:21;98706.31;;;3.28;100.00
21960;BME280;11144;43.030;25.108;2023-02-04T05:54:56;98710.72;;;3.24;100.00
21960;BME280;11144;43.030;25.108;2023-02-04T05:56:30;98706.47;;;3.19;100.00
21960;BME280;11144;43.030;25.108;2023-02-04T05:58:03;98712.66;;;3.13;100.00
21960;BME280;11144;43.030;25.108;2023-02-04T05:59:36;98717.06;;;3.10;100.00
21960;BME280;11144;43.030;25.108;2023-02-04T06:01:09;98715.41;;;3.06;100.00
21960;BME280;11144;43.030;25.108;2023-02-04T06:02:44;98722.38;;;3.04;100.00
21960;BME280;11144;43.030;25.108;2023-02-04T06:04:17;98712.75;;;3.09;100.00
21960;BME280;11144;43.030;25.108;2023-02-04T06:05:51;98719.69;;;3.10;100.00
21960;BME280;11144;43.030;25.108;2023-02-04T06:07:24;98709.16;;;3.14;100.00
21960;BME280;11144;43.030;25.108;2023-02-04T06:08:57;98716.03;;;3.21;100.00
21960;BME280;11144;43.030;25.108;2023-02-04T06:10:30;98706.38;;;3.25;100.00
21960;BME280;11144;43.030;25.108;2023-02-04T06:12:04;98710.66;;;3.27;100.00
21960;BME280;11144;43.030;25.108;2023-02-04T06:13:37;98707.13;;;3.31;100.00
21960;BME280;11144;43.030;25.108;2023-02-04T06:15:11;98709.72;;;3.33;100.00
21960;BME280;11144;43.030;25.108;2023-02-04T06:16:44;98718.44;;;3.32;100.00
21960;BME280;11144;43.030;25.108;2023-02-04T06:18:19;98711.44;;;3.34;100.00
21960;BME280;11144;43.030;25.108;2023-02-04T06:19:52;98713.16;;;3.35;100.00
21960;BME280;11144;43.030;25.108;2023-02-04T06:21:25;98713.94;;;3.40;100.00
21960;BME280;11144;43.030;25.108;2023-02-04T06:22:58;98721.78;;;3.40;100.00
21960;BME280;11144;43.030;25.108;2023-02-04T06:24:31;98714.75;;;3.45;100.00
21960;BME280;11144;43.030;25.108;2023-02-04T06:26:04;98725.13;;;3.48;100.00
21960;BME280;11144;43.030;25.108;2023-02-04T06:27:36;98714.56;;;3.54;100.00
21960;BME280;11144;43.030;25.108;2023-02-04T06:29:10;98717.91;;;3.62;100.00
21960;BME280;11144;43.030;25.108;2023-02-04T06:30:43;98727.34;;;3.69;100.00
21960;BME280;11144;43.030;25.108;2023-02-04T06:32:17;98726.41;;;3.73;100.00
21960;BME280;11144;43.030;25.108;2023-02-04T06:33:52;98724.63;;;3.75;100.00
21960;BME280;11144;43.030;25.108;2023-02-04T06:35:25;98724.63;;;3.77;100.00
21960;BME280;11144;43.030;25.108;2023-02-04T06:36:58;98735.88;;;3.79;100.00
21960;BME280;11144;43.030;25.108;2023-02-04T06:38:31;98721.06;;;3.79;100.00
21960;BME280;11144;43.030;25.108;2023-02-04T06:40:06;98721.91;;;3.80;100.00
21960;BME280;11144;43.030;25.108;2023-02-04T06:41:39;98716.59;;;3.84;100.00
21960;BME280;11144;43.030;25.108;2023-02-04T06:43:13;98710.47;;;3.85;100.00
21960;BME280;11144;43.030;25.108;2023-02-04T06:44:46;98703.44;;;3.90;100.00
21960;BME280;11144;43.030;25.108;2023-02-04T06:46:19;98713.00;;;3.90;100.00
21960;BME280;11144;43.030;25.108;2023-02-04T06:47:51;98710.34;;;3.93;100.00
21960;BME280;11144;43.030;25.108;2023-02-04T06:49:26;98706.00;;;3.93;100.00
21960;BME280;11144;43.030;25.108;2023-02-04T06:50:59;98710.25;;;3.97;100.00
21960;BME280;11144;43.030;25.108;2023-02-04T06:52:33;98709.25;;;4.04;100.00
21960;BME280;11144;43.030;25.108;2023-02-04T06:54:06;98711.72;;;4.10;100.00
21960;BME280;11144;43.030;25.108;2023-02-04T06:55:39;98713.31;;;4.17;100.00
21960;BME280;11144;43.030;25.108;2023-02-04T06:57:12;98710.56;;;4.25;100.00
21960;BME280;11144;43.030;25.108;2023-02-04T06:58:45;98706.97;;;4.30;100.00
21960;BME280;11144;43.030;25.108;2023-02-04T07:00:19;98709.47;;;4.33;100.00
21960;BME280;11144;43.030;25.108;2023-02-04T07:01:53;98702.53;;;4.32;100.00
21960;BME280;11144;43.030;25.108;2023-02-04T07:03:26;98702.47;;;4.35;100.00
21960;BME280;11144;43.030;25.108;2023-02-04T07:05:00;98701.56;;;4.38;100.00
21960;BME280;11144;43.030;25.108;2023-02-04T07:06:33;98712.84;;;4.41;100.00
21960;BME280;11144;43.030;25.108;2023-02-04T07:08:06;98709.31;;;4.42;100.00
21960;BME280;11144;43.030;25.108;2023-02-04T07:09:39;98695.38;;;4.40;100.00
21960;BME280;11144;43.030;25.108;2023-02-04T07:11:11;98698.97;;;4.36;100.00
21960;BME280;11144;43.030;25.108;2023-02-04T07:12:44;98703.31;;;4.37;100.00
21960;BME280;11144;43.030;25.108;2023-02-04T07:14:18;98694.66;;;4.34;100.00
21960;BME280;11144;43.030;25.108;2023-02-04T07:15:51;98693.88;;;4.30;100.00
21960;BME280;11144;43.030;25.108;2023-02-04T07:17:24;98687.66;;;4.36;100.00
21960;BME280;11144;43.030;25.108;2023-02-04T07:18:57;98693.66;;;4.39;100.00
21960;BME280;11144;43.030;25.108;2023-02-04T07:20:33;98696.97;;;4.47;100.00
21960;BME280;11144;43.030;25.108;2023-02-04T07:22:06;98695.69;;;4.65;100.00
21960;BME280;11144;43.030;25.108;2023-02-04T07:23:39;98691.91;;;4.78;100.00
21960;BME280;11144;43.030;25.108;2023-02-04T07:25:13;98682.94;;;4.89;100.00
21960;BME280;11144;43.030;25.108;2023-02-04T07:26:48;98695.78;;;4.98;100.00
21960;BME280;11144;43.030;25.108;2023-02-04T07:28:22;98695.59;;;5.07;100.00
21960;BME280;11144;43.030;25.108;2023-02-04T07:29:55;98692.88;;;5.10;100.00
21960;BME280;11144;43.030;25.108;2023-02-04T07:31:28;98698.88;;;5.15;100.00
21960;BME280;11144;43.030;25.108;2023-02-04T07:33:02;98690.09;;;5.16;100.00
21960;BME280;11144;43.030;25.108;2023-02-04T07:34:34;98683.97;;;5.17;100.00
21960;BME280;11144;43.030;25.108;2023-02-04T07:36:09;98691.75;;;5.20;100.00
21960;BME280;11144;43.030;25.108;2023-02-04T07:37:43;98687.38;;;5.21;100.00
21960;BME280;11144;43.030;25.108;2023-02-04T07:39:16;98695.28;;;5.19;100.00
21960;BME280;11144;43.030;25.108;2023-02-04T07:40:48;98676.09;;;5.17;100.00
21960;BME280;11144;43.030;25.108;2023-02-04T07:42:22;98685.81;;;5.14;100.00
21960;BME280;11144;43.030;25.108;2023-02-04T07:44:03;98692.91;;;5.09;100.00
21960;BME280;11144;43.030;25.108;2023-02-04T07:45:36;98693.78;;;5.09;100.00
21960;BME280;11144;43.030;25.108;2023-02-04T07:47:09;98695.59;;;5.07;100.00
21960;BME280;11144;43.030;25.108;2023-02-04T07:48:43;98695.66;;;5.04;100.00
21960;BME280;11144;43.030;25.108;2023-02-04T07:50:16;98695.66;;;5.04;100.00
21960;BME280;11144;43.030;25.108;2023-02-04T07:51:51;98692.19;;;5.02;100.00
21960;BME280;11144;43.030;25.108;2023-02-04T07:53:24;98701.03;;;4.98;100.00
21960;BME280;11144;43.030;25.108;2023-02-04T07:54:57;98697.53;;;4.98;100.00
21960;BME280;11144;43.030;25.108;2023-02-04T07:56:31;98700.97;;;5.01;100.00
21960;BME280;11144;43.030;25.108;2023-02-04T07:58:04;98692.19;;;5.02;100.00
21960;BME280;11144;43.030;25.108;2023-02-04T07:59:38;98701.75;;;5.03;100.00
21960;BME280;11144;43.030;25.108;2023-02-04T08:01:11;98692.19;;;5.02;100.00
21960;BME280;11144;43.030;25.108;2023-02-04T08:02:44;98693.91;;;5.03;100.00
21960;BME280;11144;43.030;25.108;2023-02-04T08:04:18;98694.00;;;5.00;100.00
21960;BME280;11144;43.030;25.108;2023-02-04T08:05:51;98690.56;;;4.98;100.00
21960;BME280;11144;43.030;25.108;2023-02-04T08:07:25;98693.13;;;5.00;100.00
21960;BME280;11144;43.030;25.108;2023-02-04T08:08:59;98692.25;;;4.99;100.00
21960;BME280;11144;43.030;25.108;2023-02-04T08:10:32;98695.72;;;5.01;100.00